Terminal Aerodrome Forecast
Issued by NWS

Home | Current Version | Previous Version | Text Only | Print | Product List | Glossary On
Versions: 1 2 3 4 5 6 7 8 9 10 11 12 13
000
FTUS46 KPDT 271700
TAFRDM
TAF
KRDM 271720Z 2718/2818 VRB04KT P6SM FEW080
     FM272100 28008KT P6SM BKN080
     FM280000 30012KT P6SM SCT060 BKN080
     FM280300 30015KT P6SM -SHRA BKN040 OVC080
     FM280800 27012KT P6SM BKN050
     FM281200 22009KT P6SM SCT150=

USA.gov is the U.S. government's official web portal to all federal, state and local government web resources and services.